createdAt,value
2022-11-04T00:01:19.872Z,2.00
2022-11-04T00:03:23.243Z,1.50
2022-11-04T00:05:25.133Z,1.67
2022-11-04T00:07:45.832Z,1.83
2022-11-04T00:09:47.652Z,1.80
2022-11-04T00:12:08.780Z,1.50
2022-11-04T00:14:11.853Z,1.70
2022-11-04T00:16:33.539Z,1.60
2022-11-04T00:18:36.197Z,2.10
2022-11-04T00:20:56.353Z,1.63
2022-11-04T00:23:16.798Z,1.80
2022-11-04T00:25:37.481Z,1.70
2022-11-04T00:27:57.799Z,1.60
2022-11-04T00:29:59.589Z,1.80
2022-11-04T00:32:20.242Z,1.80
2022-11-04T00:34:22.037Z,1.97
2022-11-04T00:36:24.521Z,1.73
2022-11-04T00:38:26.480Z,1.77
2022-11-04T00:40:28.384Z,1.80
2022-11-04T00:42:30.193Z,2.00
2022-11-04T00:44:31.984Z,1.80
2022-11-04T00:46:34.160Z,1.90
2022-11-04T00:48:35.935Z,1.80
2022-11-04T00:50:37.726Z,1.97
2022-11-04T00:52:39.609Z,2.30
2022-11-04T00:54:41.520Z,2.13
2022-11-04T00:56:43.490Z,2.07
2022-11-04T00:58:45.152Z,2.30
2022-11-04T01:00:47.282Z,2.60
2022-11-04T01:02:49.067Z,2.30
2022-11-04T01:04:50.901Z,2.10
2022-11-04T01:06:53.164Z,2.70
2022-11-04T01:09:04.629Z,2.90
2022-11-04T01:11:08.470Z,2.37
2022-11-04T01:13:14.205Z,2.30
2022-11-04T01:15:15.930Z,2.20
2022-11-04T01:17:17.889Z,2.30
2022-11-04T01:19:19.973Z,1.80
2022-11-04T01:21:22.099Z,2.50
2022-11-04T01:23:23.996Z,2.00
2022-11-04T01:25:26.025Z,2.07
2022-11-04T01:27:27.851Z,2.50
2022-11-04T01:29:29.869Z,2.13
2022-11-04T01:31:31.949Z,2.23
2022-11-04T01:33:33.990Z,2.30
2022-11-04T01:35:35.720Z,2.40
2022-11-04T01:37:37.495Z,2.40
2022-11-04T01:39:39.424Z,2.30
2022-11-04T01:41:41.263Z,2.50
2022-11-04T01:43:44.264Z,2.50
2022-11-04T01:45:59.442Z,2.40
2022-11-04T01:48:15.706Z,2.20
2022-11-04T01:50:25.368Z,2.10
2022-11-04T01:52:35.778Z,2.47
2022-11-04T01:54:38.657Z,2.47
2022-11-04T01:56:42.167Z,2.37
2022-11-04T01:58:48.330Z,2.30
2022-11-04T02:00:50.587Z,2.10
2022-11-04T02:03:12.087Z,2.27
2022-11-04T02:05:15.695Z,2.37
2022-11-04T02:07:17.845Z,2.20
2022-11-04T02:09:21.072Z,2.57
2022-11-04T02:11:41.758Z,2.00
2022-11-04T02:13:43.702Z,1.97
2022-11-04T02:16:22.430Z,2.20
2022-11-04T02:18:53.535Z,2.13
2022-11-04T02:21:19.862Z,2.47
2022-11-04T02:23:32.265Z,2.23
2022-11-04T02:25:52.579Z,2.43
2022-11-04T02:28:18.084Z,2.33
2022-11-04T02:30:21.717Z,2.10
2022-11-04T02:32:35.261Z,2.20
2022-11-04T02:34:51.784Z,2.20
2022-11-04T02:37:12.822Z,1.90
2022-11-04T02:39:26.333Z,2.47
2022-11-04T02:41:52.071Z,2.30
2022-11-04T02:44:02.468Z,1.90
2022-11-04T02:46:41.194Z,2.67
2022-11-04T02:48:49.752Z,2.40
2022-11-04T02:51:13.052Z,2.40
2022-11-04T02:53:20.407Z,2.40
2022-11-04T02:55:35.125Z,2.40
2022-11-04T02:57:39.614Z,2.50
2022-11-04T03:00:10.882Z,2.40
2022-11-04T03:02:18.665Z,2.33
2022-11-04T03:04:29.465Z,2.30
2022-11-04T03:06:33.561Z,2.17
2022-11-04T03:08:40.639Z,2.00
2022-11-04T03:10:46.453Z,2.00
2022-11-04T03:12:58.367Z,2.20
2022-11-04T03:15:05.641Z,2.27
2022-11-04T03:17:14.636Z,2.30
2022-11-04T03:19:29.218Z,2.30
2022-11-04T03:21:35.256Z,2.33
2022-11-04T03:23:38.721Z,2.60
2022-11-04T03:25:50.116Z,2.57
2022-11-04T03:27:58.460Z,2.40
2022-11-04T03:30:08.292Z,2.73
2022-11-04T03:32:22.688Z,2.57
2022-11-04T03:34:24.693Z,2.30
2022-11-04T03:36:29.635Z,2.53
2022-11-04T03:38:32.694Z,2.53
2022-11-04T03:40:34.764Z,2.20
2022-11-04T03:42:43.528Z,2.20
2022-11-04T03:44:50.023Z,2.03
2022-11-04T03:46:53.891Z,2.97
2022-11-04T03:48:56.307Z,2.13
2022-11-04T03:50:59.661Z,2.40
2022-11-04T03:53:01.651Z,2.33
2022-11-04T03:55:04.788Z,2.47
2022-11-04T03:57:22.188Z,2.20
2022-11-04T04:00:19.009Z,2.10
2022-11-04T04:02:43.839Z,2.50
2022-11-04T04:04:52.744Z,2.50
2022-11-04T04:07:03.385Z,2.50
2022-11-04T04:09:29.976Z,2.40
2022-11-04T04:11:49.932Z,2.20
2022-11-04T04:14:41.016Z,2.47
2022-11-04T04:16:47.251Z,2.33
2022-11-04T04:19:14.284Z,2.40
2022-11-04T04:21:21.403Z,2.10
2022-11-04T04:23:46.988Z,2.53
2022-11-04T04:26:07.704Z,2.40
2022-11-04T04:28:12.796Z,2.53
2022-11-04T04:30:17.217Z,2.47
2022-11-04T04:32:22.520Z,2.53
2022-11-04T04:34:29.986Z,2.27
2022-11-04T04:36:39.332Z,2.90
2022-11-04T04:39:01.588Z,2.17
2022-11-04T04:41:49.073Z,2.00
2022-11-04T04:44:09.903Z,2.07
2022-11-04T04:46:12.833Z,2.23
2022-11-04T04:48:14.869Z,2.30
2022-11-04T04:50:19.417Z,2.10
2022-11-04T04:52:23.316Z,2.57
2022-11-04T04:54:25.148Z,1.93
2022-11-04T04:56:27.331Z,2.30
2022-11-04T04:58:29.055Z,2.10
2022-11-04T05:00:31.181Z,2.30
2022-11-04T05:02:33.102Z,2.37
2022-11-04T05:04:35.903Z,2.20
2022-11-04T05:06:38.045Z,2.43
2022-11-04T05:08:39.771Z,2.67
2022-11-04T05:10:41.700Z,2.40
2022-11-04T05:13:02.335Z,2.33
2022-11-04T05:15:04.794Z,2.43
2022-11-04T05:17:06.563Z,3.63
2022-11-04T05:19:08.525Z,2.63
2022-11-04T05:21:14.182Z,2.70
2022-11-04T05:23:18.660Z,2.67
2022-11-04T05:25:20.578Z,3.27
2022-11-04T05:27:22.338Z,3.00
2022-11-04T05:29:24.026Z,4.27
2022-11-04T05:31:25.722Z,3.90
2022-11-04T05:33:27.564Z,3.10
2022-11-04T05:35:29.672Z,2.60
2022-11-04T05:37:33.682Z,3.10
2022-11-04T05:39:35.396Z,2.80
2022-11-04T05:41:37.247Z,2.60
2022-11-04T05:43:38.978Z,2.23
2022-11-04T05:45:41.122Z,2.73
2022-11-04T05:47:43.138Z,2.27
2022-11-04T05:49:45.085Z,2.20
2022-11-04T05:51:47.274Z,2.33
2022-11-04T05:53:49.257Z,1.97
2022-11-04T05:55:51.885Z,2.30
2022-11-04T05:57:54.003Z,2.30
2022-11-04T05:59:55.896Z,2.37
2022-11-04T06:01:57.801Z,2.30
2022-11-04T06:04:01.167Z,2.20
2022-11-04T06:06:03.129Z,2.23
2022-11-04T06:08:05.169Z,2.17
2022-11-04T06:10:07.778Z,2.20
2022-11-04T06:12:16.790Z,2.10
2022-11-04T06:14:19.017Z,2.40
2022-11-04T06:16:21.178Z,2.13
2022-11-04T06:18:23.443Z,2.47
2022-11-04T06:20:25.543Z,2.40
2022-11-04T06:22:28.007Z,2.00
2022-11-04T06:24:30.491Z,2.60
2022-11-04T06:26:33.185Z,2.40
2022-11-04T06:28:35.681Z,1.93
2022-11-04T06:30:39.806Z,2.23
2022-11-04T06:32:41.807Z,2.00
2022-11-04T06:34:44.217Z,2.10
2022-11-04T06:36:46.024Z,1.70
2022-11-04T06:38:47.812Z,1.80
2022-11-04T06:40:49.516Z,2.00
2022-11-04T06:42:51.305Z,2.20
2022-11-04T06:44:53.228Z,2.20
2022-11-04T06:46:55.020Z,1.60
2022-11-04T06:48:57.108Z,1.90
2022-11-04T06:51:00.859Z,1.60
2022-11-04T06:53:02.675Z,1.90
2022-11-04T06:55:04.895Z,1.60
2022-11-04T06:57:06.848Z,2.00
2022-11-04T06:59:13.894Z,2.10
2022-11-04T07:01:21.434Z,1.57
2022-11-04T07:03:23.993Z,2.03
2022-11-04T07:05:25.778Z,1.70
2022-11-04T07:07:29.511Z,1.77
2022-11-04T07:09:31.465Z,2.20
2022-11-04T07:11:34.413Z,1.73
2022-11-04T07:13:36.267Z,1.80
2022-11-04T07:15:41.998Z,2.10
2022-11-04T07:17:44.887Z,1.90
2022-11-04T07:19:46.645Z,2.13
2022-11-04T07:21:48.554Z,1.87
2022-11-04T07:23:50.393Z,2.30
2022-11-04T07:25:54.174Z,2.23
2022-11-04T07:27:58.122Z,2.10
2022-11-04T07:30:02.954Z,2.60
2022-11-04T07:32:05.286Z,2.37
2022-11-04T07:34:07.222Z,3.50
2022-11-04T07:36:12.169Z,2.80
2022-11-04T07:38:13.882Z,2.63
2022-11-04T07:40:15.902Z,3.33
2022-11-04T07:42:18.359Z,3.30
2022-11-04T07:44:28.033Z,2.70
2022-11-04T07:46:29.754Z,2.93
2022-11-04T07:48:36.546Z,2.70
2022-11-04T07:50:40.422Z,2.83
2022-11-04T07:52:42.454Z,2.60
2022-11-04T07:54:44.212Z,2.13
2022-11-04T07:56:46.232Z,2.50
2022-11-04T07:58:48.074Z,2.10
2022-11-04T08:00:50.143Z,2.20
2022-11-04T08:02:52.044Z,2.43
2022-11-04T08:04:53.912Z,2.60
2022-11-04T08:06:55.806Z,2.57
2022-11-04T08:08:59.253Z,2.47
2022-11-04T08:11:14.249Z,2.67
2022-11-04T08:13:18.817Z,2.57
2022-11-04T08:15:20.523Z,2.90
2022-11-04T08:17:22.357Z,2.40
2022-11-04T08:19:24.237Z,2.73
2022-11-04T08:21:25.948Z,2.50
2022-11-04T08:23:27.736Z,2.63
2022-11-04T08:25:29.514Z,1.97
2022-11-04T08:27:32.041Z,2.30
2022-11-04T08:29:34.701Z,2.13
2022-11-04T08:31:37.298Z,2.10
2022-11-04T08:33:41.129Z,1.87
2022-11-04T08:35:43.066Z,2.30
2022-11-04T08:37:44.805Z,2.20
2022-11-04T08:39:46.734Z,1.93
2022-11-04T08:41:52.178Z,2.10
2022-11-04T08:44:04.066Z,2.60
2022-11-04T08:46:07.897Z,2.37
2022-11-04T08:48:10.445Z,2.10
2022-11-04T08:50:13.032Z,2.47
2022-11-04T08:52:14.824Z,2.23
2022-11-04T08:54:17.132Z,2.70
2022-11-04T08:56:21.409Z,2.33
2022-11-04T08:58:23.940Z,1.90
2022-11-04T09:00:25.994Z,1.87
2022-11-04T09:02:27.729Z,2.03
2022-11-04T09:04:29.441Z,2.43
2022-11-04T09:06:40.966Z,2.20
2022-11-04T09:08:43.659Z,2.40
2022-11-04T09:10:47.383Z,2.03
2022-11-04T09:12:49.297Z,2.17
2022-11-04T09:14:53.362Z,2.43
2022-11-04T09:16:56.264Z,2.07
2022-11-04T09:18:58.550Z,2.27
2022-11-04T09:21:05.171Z,2.20
2022-11-04T09:23:07.525Z,2.13
2022-11-04T09:25:09.734Z,2.47
2022-11-04T09:27:11.861Z,2.40
2022-11-04T09:29:13.783Z,2.00
2022-11-04T09:31:19.117Z,2.17
2022-11-04T09:33:20.970Z,2.70
2022-11-04T09:35:22.904Z,2.13
2022-11-04T09:37:24.697Z,2.00
2022-11-04T09:39:26.576Z,2.50
2022-11-04T09:42:06.210Z,1.93
2022-11-04T09:44:26.004Z,2.30
2022-11-04T09:46:31.555Z,2.20
2022-11-04T09:48:47.276Z,2.20
2022-11-04T09:50:52.468Z,2.30
2022-11-04T09:53:01.501Z,2.30
2022-11-04T09:55:24.575Z,2.10
2022-11-04T09:57:27.585Z,2.10
2022-11-04T09:59:34.147Z,2.00
2022-11-04T10:02:09.213Z,2.20
2022-11-04T10:04:19.789Z,2.20
2022-11-04T10:06:50.864Z,2.17
2022-11-04T10:09:15.348Z,2.30
2022-11-04T10:11:25.907Z,2.57
2022-11-04T10:13:53.392Z,2.23
2022-11-04T10:16:20.081Z,2.40
2022-11-04T10:18:24.671Z,2.10
2022-11-04T10:21:16.971Z,1.90
2022-11-04T10:23:42.435Z,1.83
2022-11-04T10:26:00.582Z,2.10
2022-11-04T10:28:03.363Z,2.40
2022-11-04T10:30:15.823Z,2.20
2022-11-04T10:33:02.499Z,2.27
2022-11-04T10:35:13.643Z,2.13
2022-11-04T10:37:15.554Z,2.30
2022-11-04T10:39:29.021Z,2.17
2022-11-04T10:41:35.195Z,2.03
2022-11-04T10:43:39.032Z,2.33
2022-11-04T10:46:12.009Z,2.00
2022-11-04T10:48:25.440Z,1.90
2022-11-04T10:50:47.599Z,2.40
2022-11-04T10:52:49.349Z,2.00
2022-11-04T10:54:51.521Z,2.30
2022-11-04T10:56:55.860Z,1.90
2022-11-04T10:59:05.943Z,1.97
2022-11-04T11:01:28.780Z,2.30
2022-11-04T11:03:35.020Z,2.00
2022-11-04T11:05:36.719Z,2.33
2022-11-04T11:07:38.860Z,1.97
2022-11-04T11:09:54.170Z,2.40
2022-11-04T11:12:48.973Z,3.93
2022-11-04T11:14:38.317Z,2.63
2022-11-04T11:16:40.387Z,2.57
2022-11-04T11:18:42.155Z,2.50
2022-11-04T11:20:50.484Z,2.13
2022-11-04T11:22:54.130Z,1.70
2022-11-04T11:25:29.229Z,1.73
2022-11-04T11:27:31.061Z,1.90
2022-11-04T11:29:44.985Z,1.70
2022-11-04T11:31:46.914Z,1.73
2022-11-04T11:34:03.848Z,1.70
2022-11-04T11:36:18.847Z,1.70
2022-11-04T11:38:24.719Z,1.60
2022-11-04T11:40:28.001Z,1.50
2022-11-04T11:42:30.382Z,1.50
2022-11-04T11:44:44.366Z,1.77
2022-11-04T11:46:54.977Z,1.50
2022-11-04T11:49:04.024Z,1.40
2022-11-04T11:51:06.711Z,1.50
2022-11-04T11:53:17.232Z,1.70
2022-11-04T11:55:25.171Z,1.30
2022-11-04T11:57:46.579Z,1.50
2022-11-04T12:02:52.211Z,1.60
2022-11-04T12:13:23.760Z,1.60
2022-11-04T12:15:39.340Z,1.43
2022-11-04T12:18:06.124Z,1.43
2022-11-04T12:20:32.439Z,1.47
2022-11-04T12:22:49.568Z,1.50
2022-11-04T12:25:10.692Z,1.20
2022-11-04T12:27:37.279Z,1.30
2022-11-04T12:29:48.223Z,1.37
2022-11-04T12:32:22.592Z,1.43
2022-11-04T12:35:05.295Z,1.40
2022-11-04T12:37:31.041Z,1.50
2022-11-04T12:40:10.741Z,1.63
2022-11-04T12:42:21.877Z,1.40
2022-11-04T12:44:44.764Z,1.77
2022-11-04T12:47:24.373Z,1.53
2022-11-04T12:49:31.963Z,1.70
2022-11-04T12:52:13.568Z,1.57
2022-11-04T12:54:25.563Z,1.57
2022-11-04T12:56:40.876Z,1.50
2022-11-04T12:59:20.769Z,1.53
2022-11-04T13:01:30.242Z,1.50
2022-11-04T13:03:55.485Z,1.30
2022-11-04T13:06:06.570Z,1.50
2022-11-04T13:08:40.242Z,1.80
2022-11-04T13:11:05.316Z,1.50
2022-11-04T13:13:08.809Z,1.50
2022-11-04T13:15:21.204Z,1.63
2022-11-04T13:17:39.569Z,1.60
2022-11-04T13:19:45.031Z,1.60
2022-11-04T13:21:47.841Z,1.40
2022-11-04T13:23:58.357Z,1.40
2022-11-04T13:26:03.612Z,1.17
2022-11-04T13:28:11.068Z,1.37
2022-11-04T13:30:27.060Z,1.60
2022-11-04T13:33:10.510Z,2.27
2022-11-04T13:35:41.578Z,1.90
2022-11-04T13:38:05.625Z,1.70
2022-11-04T13:40:22.363Z,1.60
2022-11-04T13:42:34.429Z,1.50
2022-11-04T13:44:40.012Z,1.60
2022-11-04T13:46:49.379Z,1.30
2022-11-04T13:49:02.108Z,1.40
2022-11-04T13:51:12.274Z,1.40
2022-11-04T13:53:14.174Z,1.40
2022-11-04T13:55:22.256Z,1.30
2022-11-04T13:57:30.350Z,1.30
2022-11-04T13:59:32.889Z,1.23
2022-11-04T14:01:36.963Z,1.40
2022-11-04T14:03:51.572Z,1.57
2022-11-04T14:06:04.021Z,1.50
2022-11-04T14:08:21.533Z,1.37
2022-11-04T14:10:46.652Z,1.30
2022-11-04T14:12:48.368Z,1.40
2022-11-04T14:14:52.454Z,1.27
2022-11-04T14:16:55.480Z,1.13
2022-11-04T14:18:57.446Z,1.20
2022-11-04T14:21:05.681Z,1.13
2022-11-04T14:23:23.295Z,1.23
2022-11-04T14:25:40.189Z,1.10
2022-11-04T14:27:45.320Z,1.00
2022-11-04T14:29:53.503Z,1.07
2022-11-04T14:31:57.865Z,1.20
2022-11-04T14:34:01.115Z,1.13
2022-11-04T14:36:21.448Z,1.10
2022-11-04T14:38:30.209Z,1.10
2022-11-04T14:41:36.376Z,1.00
2022-11-04T14:44:01.007Z,1.00
2022-11-04T14:46:03.198Z,0.90
2022-11-04T14:48:17.815Z,1.10
2022-11-04T14:50:24.249Z,1.20
2022-11-04T14:52:38.940Z,1.70
2022-11-04T14:54:41.258Z,1.30
2022-11-04T14:56:43.094Z,1.20
2022-11-04T14:59:01.543Z,1.00
2022-11-04T15:01:04.316Z,1.00
2022-11-04T15:03:45.520Z,1.13
2022-11-04T15:05:39.323Z,1.07
2022-11-04T15:07:41.339Z,1.10
2022-11-04T15:09:50.233Z,1.10
2022-11-04T15:12:28.860Z,2.80
2022-11-04T15:14:30.842Z,2.90
2022-11-04T15:16:32.896Z,2.63
2022-11-04T15:18:39.701Z,1.40
2022-11-04T15:20:52.864Z,1.50
2022-11-04T15:22:55.801Z,1.40
2022-11-04T15:25:02.116Z,1.60
2022-11-04T15:27:06.186Z,1.50
2022-11-04T15:29:12.051Z,1.90
2022-11-04T15:31:17.401Z,1.30
2022-11-04T15:33:22.149Z,1.80
2022-11-04T15:35:25.293Z,1.50
2022-11-04T15:37:28.961Z,1.40
2022-11-04T15:39:34.454Z,1.57
2022-11-04T15:41:58.796Z,1.47
2022-11-04T15:44:00.899Z,1.70
2022-11-04T15:46:04.746Z,1.77
2022-11-04T15:48:25.656Z,1.73
2022-11-04T15:50:30.290Z,1.60
2022-11-04T15:52:32.210Z,1.63
2022-11-04T15:54:37.243Z,1.40
2022-11-04T15:56:50.651Z,1.60
2022-11-04T15:58:54.383Z,1.77
2022-11-04T16:00:58.909Z,1.50
2022-11-04T16:03:01.621Z,1.60
2022-11-04T16:05:03.657Z,1.43
2022-11-04T16:07:11.290Z,1.50
2022-11-04T16:09:13.163Z,1.50
2022-11-04T16:11:19.870Z,1.57
2022-11-04T16:13:24.458Z,1.60
2022-11-04T16:15:43.083Z,1.43
2022-11-04T16:17:45.159Z,1.50
2022-11-04T16:19:50.323Z,1.40
2022-11-04T16:22:09.165Z,1.40
2022-11-04T16:24:26.348Z,1.43
2022-11-04T16:26:37.526Z,1.60
2022-11-04T16:28:40.819Z,1.40
2022-11-04T16:30:56.825Z,1.50
2022-11-04T16:33:10.820Z,2.17
2022-11-04T16:35:25.369Z,1.60
2022-11-04T16:37:27.892Z,1.50
2022-11-04T16:39:30.032Z,1.40
2022-11-04T16:41:36.389Z,1.50
2022-11-04T16:43:41.485Z,1.60
2022-11-04T16:45:50.865Z,1.60
2022-11-04T16:47:55.501Z,2.10
2022-11-04T16:50:01.384Z,1.83
2022-11-04T16:52:03.650Z,1.90
2022-11-04T16:54:05.545Z,1.80
2022-11-04T16:56:08.990Z,1.57
2022-11-04T16:58:17.278Z,1.70
2022-11-04T17:00:22.684Z,1.50
2022-11-04T17:02:30.913Z,1.77
2022-11-04T17:04:32.915Z,1.60
2022-11-04T17:06:35.390Z,1.57
2022-11-04T17:08:38.272Z,1.40
2022-11-04T17:10:40.613Z,1.57
2022-11-04T17:12:43.766Z,1.47
2022-11-04T17:14:45.556Z,1.20
2022-11-04T17:16:47.653Z,1.47
2022-11-04T17:18:49.412Z,1.10
2022-11-04T17:20:54.781Z,1.20
2022-11-04T17:22:58.896Z,1.60
2022-11-04T17:25:01.169Z,1.40
2022-11-04T17:27:02.995Z,1.30
2022-11-04T17:29:05.160Z,1.50
2022-11-04T17:31:06.964Z,1.70
2022-11-04T17:33:16.663Z,1.70
2022-11-04T17:35:18.706Z,1.77
2022-11-04T17:37:20.757Z,1.80
2022-11-04T17:39:22.546Z,1.90
2022-11-04T17:41:42.899Z,2.20
2022-11-04T17:44:00.370Z,2.10
2022-11-04T17:46:26.285Z,2.10
2022-11-04T17:48:34.324Z,2.00
2022-11-04T17:53:33.830Z,2.50
2022-11-04T17:54:00.072Z,2.33
2022-11-04T17:58:49.971Z,2.20
2022-11-04T18:00:52.220Z,2.80
2022-11-04T18:02:54.265Z,2.50
2022-11-04T18:04:56.112Z,2.90
2022-11-04T18:07:02.531Z,2.40
2022-11-04T18:09:05.669Z,2.60
2022-11-04T18:11:10.877Z,2.10
2022-11-04T18:13:13.022Z,2.63
2022-11-04T18:15:17.361Z,2.80
2022-11-04T18:17:20.587Z,5.50
2022-11-04T18:19:23.452Z,3.33
2022-11-04T18:21:27.183Z,3.30
2022-11-04T18:23:29.787Z,3.07
2022-11-04T18:25:45.605Z,2.90
2022-11-04T18:29:08.454Z,2.83
2022-11-04T18:31:15.385Z,2.50
2022-11-04T18:33:17.384Z,2.40
2022-11-04T18:35:19.255Z,1.90
2022-11-04T18:37:21.164Z,1.60
2022-11-04T18:39:24.185Z,2.70
2022-11-04T18:41:27.104Z,2.17
2022-11-04T18:43:28.908Z,1.63
2022-11-04T18:45:30.899Z,1.90
2022-11-04T18:47:33.595Z,2.07
2022-11-04T18:49:36.428Z,1.63
2022-11-04T18:51:38.216Z,1.80
2022-11-04T18:53:40.059Z,2.20
2022-11-04T18:55:42.328Z,1.70
2022-11-04T18:57:45.434Z,2.10
2022-11-04T18:59:47.537Z,1.80
2022-11-04T19:01:51.664Z,1.70
2022-11-04T19:03:54.170Z,1.70
2022-11-04T19:05:55.866Z,1.60
2022-11-04T19:07:57.633Z,1.43
2022-11-04T19:09:59.521Z,1.50
2022-11-04T19:12:27.351Z,1.50
2022-11-04T19:14:29.610Z,1.57
2022-11-04T19:16:32.448Z,1.70
2022-11-04T19:18:36.302Z,1.63
2022-11-04T19:20:38.440Z,1.50
2022-11-04T19:22:41.253Z,1.70
2022-11-04T19:24:44.258Z,1.80
2022-11-04T19:26:46.016Z,1.60
2022-11-04T19:28:49.087Z,1.80
2022-11-04T19:31:03.368Z,1.77
2022-11-04T19:33:05.556Z,3.50
2022-11-04T19:35:07.639Z,5.83
2022-11-04T19:37:11.047Z,4.90
2022-11-04T19:39:12.829Z,4.23
2022-11-04T19:41:35.749Z,6.00
2022-11-04T19:43:37.459Z,4.90
2022-11-04T19:45:42.989Z,3.53
2022-11-04T19:47:44.725Z,3.03
2022-11-04T19:49:46.546Z,2.60
2022-11-04T19:51:48.470Z,2.53
2022-11-04T19:53:51.802Z,2.80
2022-11-04T19:55:58.970Z,2.83
2022-11-04T19:58:02.076Z,3.00
2022-11-04T20:00:04.790Z,2.40
2022-11-04T20:02:15.185Z,2.70
2022-11-04T20:04:17.684Z,8.00
2022-11-04T20:06:20.332Z,4.73
2022-11-04T20:08:22.316Z,3.90
2022-11-04T20:10:24.355Z,4.70
2022-11-04T20:12:44.909Z,6.10
2022-11-04T20:14:46.915Z,5.43
2022-11-04T20:16:48.794Z,4.63
2022-11-04T20:18:56.518Z,6.43
2022-11-04T20:20:58.516Z,5.33
2022-11-04T20:23:00.336Z,5.47
2022-11-04T20:25:02.778Z,4.30
2022-11-04T20:27:04.977Z,3.40
2022-11-04T20:29:07.400Z,3.53
2022-11-04T20:31:11.656Z,3.43
2022-11-04T20:33:14.775Z,2.87
2022-11-04T20:35:16.479Z,2.70
2022-11-04T20:37:18.336Z,7.00
2022-11-04T20:39:20.589Z,7.23
2022-11-04T20:41:22.633Z,5.97
2022-11-04T20:43:26.231Z,6.57
2022-11-04T20:45:28.678Z,5.60
2022-11-04T20:47:30.470Z,5.00
2022-11-04T20:49:32.513Z,4.00
2022-11-04T20:51:36.162Z,3.67
2022-11-04T20:53:38.689Z,3.17
2022-11-04T20:55:40.485Z,3.03
2022-11-04T20:57:42.242Z,3.10
2022-11-04T20:59:45.090Z,3.00
2022-11-04T21:01:48.507Z,2.80
2022-11-04T21:03:50.447Z,2.60
2022-11-04T21:05:52.325Z,2.53
2022-11-04T21:07:54.843Z,3.00
2022-11-04T21:09:56.709Z,3.00
2022-11-04T21:11:58.544Z,2.97
2022-11-04T21:14:00.393Z,2.90
2022-11-04T21:16:03.443Z,2.87
2022-11-04T21:18:05.747Z,3.03
2022-11-04T21:20:08.381Z,3.07
2022-11-04T21:22:10.166Z,3.30
2022-11-04T21:24:14.268Z,3.07
2022-11-04T21:26:21.625Z,3.53
2022-11-04T21:28:24.860Z,3.30
2022-11-04T21:30:31.895Z,3.27
2022-11-04T21:32:34.713Z,2.90
2022-11-04T21:34:37.053Z,3.40
2022-11-04T21:36:39.966Z,2.70
2022-11-04T21:38:42.249Z,3.10
2022-11-04T21:40:45.338Z,3.27
2022-11-04T21:42:47.053Z,2.83
2022-11-04T21:44:48.799Z,2.83
2022-11-04T21:46:50.885Z,2.70
2022-11-04T21:48:53.152Z,3.00
2022-11-04T21:50:54.917Z,3.30
2022-11-04T21:52:58.163Z,3.00
2022-11-04T21:54:59.933Z,2.70
2022-11-04T21:57:01.656Z,3.13
2022-11-04T21:59:05.317Z,3.30
2022-11-04T22:01:08.994Z,3.23
2022-11-04T22:03:11.610Z,3.27
2022-11-04T22:05:16.306Z,3.40
2022-11-04T22:07:38.112Z,3.50
2022-11-04T22:09:40.035Z,3.90
2022-11-04T22:11:42.039Z,3.20
2022-11-04T22:13:44.115Z,3.50
2022-11-04T22:15:58.121Z,3.47
2022-11-04T22:17:59.822Z,3.60
2022-11-04T22:20:03.219Z,3.70
2022-11-04T22:22:09.350Z,4.13
2022-11-04T22:24:13.446Z,3.67
2022-11-04T22:26:18.524Z,4.00
2022-11-04T22:28:20.852Z,4.17
2022-11-04T22:30:22.602Z,3.93
2022-11-04T22:32:24.721Z,3.47
2022-11-04T22:34:26.674Z,3.57
2022-11-04T22:36:29.474Z,3.80
2022-11-04T22:38:36.330Z,3.53
2022-11-04T22:40:38.889Z,3.20
2022-11-04T22:42:40.680Z,3.23
2022-11-04T22:44:45.149Z,3.30
2022-11-04T22:46:47.012Z,3.10
2022-11-04T22:48:49.118Z,3.27
2022-11-04T22:50:56.465Z,2.70
2022-11-04T22:52:58.251Z,2.97
2022-11-04T22:55:00.387Z,2.70
2022-11-04T22:57:02.244Z,2.60
2022-11-04T22:59:04.884Z,2.80
2022-11-04T23:01:13.824Z,3.00
2022-11-04T23:03:16.393Z,2.77
2022-11-04T23:05:19.159Z,2.73
2022-11-04T23:07:20.998Z,2.57
2022-11-04T23:09:22.805Z,2.80
2022-11-04T23:11:45.127Z,2.90
2022-11-04T23:14:19.831Z,2.90
2022-11-04T23:16:42.329Z,3.00
2022-11-04T23:18:47.251Z,2.63
2022-11-04T23:21:09.010Z,2.93
2022-11-04T23:23:49.357Z,2.70
2022-11-04T23:25:51.281Z,2.70
2022-11-04T23:28:14.250Z,2.50
2022-11-04T23:30:22.452Z,2.30
2022-11-04T23:32:27.552Z,2.53
2022-11-04T23:34:48.077Z,2.60
2022-11-04T23:37:09.992Z,2.60
2022-11-04T23:39:11.871Z,2.63
2022-11-04T23:41:32.268Z,2.87
2022-11-04T23:43:35.277Z,2.80
2022-11-04T23:45:56.204Z,3.00
2022-11-04T23:48:16.527Z,3.07
2022-11-04T23:50:37.680Z,2.63
2022-11-04T23:52:59.558Z,2.80
2022-11-04T23:55:19.775Z,2.67
2022-11-04T23:57:40.066Z,3.10
